Paxton, Texas
Current Conditions -  °F | °C
As of 1:56 PM on Thursday 23 Oct 2014 (Local Time) from KSHV Reporting Station
Scattered Clouds Scattered Clouds  
Wind Chill: 68°   Ceiling: Unl
Heat Index: 68°   Visibility: 10mi
Dew Point: 48°   Wind: 3mph
Humidity: 49%   Direction: 360°N
Pressure: 30.13"   Gusts: NA
Location:  31.9194°N, 94.0667°W
Report Text: KSHV 231856Z 36003KT 10SM FEW170 SCT270 20/09 A3013 RMK AO2 SLP201 T02000089
Loading
Personal Weather Stations






























Interactive Weather Map
Tropical Storm Tracking
New forecast layout! Learn more

10-Day Weather Forecast

Advertisements
Track Severe Weather on mobile